Portada
METAR-TAF:

METAR-TAF

Aeroports :

Pyongyang, Corea del Nord

latitud: 39-02N, longitud: 125-47E, altitud: 36 m

METAR: manca

Hora: 05:42 (21:12 UTC)

Pronòstic

L'informe es va fer fa 17 hores i 52 minuts, a les 03:20 UTC
Pronòstic vàlid del 14 a les 06 UTC al 15 a les 06 UTC
Vent 10 kt del Sud
Visibilitat 10 km o més
Núvols disperses a una alçada de 1000 ft
Cel ennuvolat a una alçada de 1700 ft
Temporalment
l' 14 a les 06 UTC al 14 a les 15 UTC
Vent 8 kt del Nord-Oest
Visibilitat: 5000 m
Núvols disperses a una alçada de 1300 ft
Núvols disperses a una alçada de 1700 ft, Cumulonimbus.
tempesta, pluja
Evolucionant progressivament
l' 14 a les 01 UTC al 14 a les 02 UTC
Vent 6 kt amb direcció variable
Cel ennuvolat a una alçada de 1700 ft

TAF: ZKPY 140320Z 1406/1506 18005MPS 9999 SCT010 BKN017 TEMPO 1406/1415 32004MPS 5000 -TSRA SCT013 SCT017CB TX33/1407Z TN25/1422Z BECMG 1401/1402 VRB03MPS BKN017

Observacions i pronòstics meteorològics de més de 4000 aeroports (METAR i TAF).

Les estacions disponibles són els punts grocs i vermells al mapa.

Posi el ratolí al punt desitjat per veure el nom de l'estació.

Feu clic per veure les observacions i els pronòstics meteorològics.

Per canviar el mapa: feu clic els botons verds amb una creu de color negre per apropar; al botó verd amb un guió per allunyar la imatge; o en les fletxes verdes per a mapes adjacents.


METAR-TAF: